Thunder radar more information blitzortung!


Radar de pluja more information rain snow radar


Visita la nostra xarxa de llocs de meteo:

Template documentation
and downloads

And another site



No particular awareness of the weather is required.    There are no Weather-warnings

Pagina Historial Weather Underground text

Diari Resum May 17, 2017 Unitats:  Mètric    Imperial   Tant
« Previous Dia
SegĂźent Dia »
Diari Setmana Mensual Anual Personalitzada
  Maxima: Minima: Media:
Temperatura: 29.1 °C 14.2 °C 22.6 °C
Punt de rosada: 12.4 °C 4.0 °C 7.6 °C
Humitat: 68 % 25 % 40 %
Wind Speed: 20.4 km/h 0.0 km/h 5.6 km/h
RĂ fegues de vent: 20.4 km/h - -
Vent:- - SSW
Pression baro: 1026.0 hPa 1013.8 hPa -
Precipitacions: 0.0 mm    
Historical Graphs
 
 
Dades de taula per May 17, 2017
Temps Temperatura Punt de rosada Pression baro Vent Wind Speed RĂ fegues de vent Humitat Rainfall Rate (Hourly)
00:02 18.9 °C 9.1 °C 1026.0 hPa SW 3.7 km/h 3.7 km/h 53 % 0.0 mm
00:05 15.0 °C 8.7 °C 1023.9 hPa Calm     66 % 0.0 mm
00:07 18.9 °C 9.1 °C 1026.0 hPa WSW 2.6 km/h 2.6 km/h 53 % 0.0 mm
00:15 15.0 °C 8.7 °C 1022.9 hPa Calm     66 % 0.0 mm
00:25 15.1 °C 9.0 °C 1023.9 hPa Calm     67 % 0.0 mm
00:35 15.2 °C 9.3 °C 1023.9 hPa Calm     68 % 0.0 mm
00:45 15.2 °C 9.3 °C 1022.9 hPa Calm     68 % 0.0 mm
00:55 15.1 °C 9.0 °C 1022.9 hPa Calm     67 % 0.0 mm
01:05 15.0 °C 8.9 °C 1022.9 hPa Calm     67 % 0.0 mm
01:15 14.6 °C 8.6 °C 1022.9 hPa Calm     67 % 0.0 mm
01:25 14.6 °C 8.8 °C 1022.9 hPa Calm   1.6 km/h 68 % 0.0 mm
01:35 14.5 °C 8.7 °C 1022.9 hPa Calm     68 % 0.0 mm
01:45 14.4 °C 8.6 °C 1022.9 hPa Calm   3.2 km/h 68 % 0.0 mm
01:55 14.2 °C 8.4 °C 1022.9 hPa SE 3.2 km/h 3.2 km/h 68 % 0.0 mm
02:05 14.3 °C 8.4 °C 1022.9 hPa Calm   1.6 km/h 68 % 0.0 mm
02:15 14.5 °C 8.4 °C 1022.9 hPa SW 1.6 km/h 3.2 km/h 67 % 0.0 mm
02:25 15.0 °C 8.7 °C 1022.9 hPa Calm   1.6 km/h 66 % 0.0 mm
02:35 15.6 °C 8.8 °C 1022.9 hPa Calm     64 % 0.0 mm
02:45 16.6 °C 9.8 °C 1022.9 hPa Calm     64 % 0.0 mm
02:55 17.4 °C 10.1 °C 1022.9 hPa Calm     62 % 0.0 mm
03:05 17.0 °C 9.4 °C 1022.9 hPa Calm   3.2 km/h 61 % 0.0 mm
03:15 17.9 °C 10.3 °C 1021.9 hPa Calm   3.2 km/h 61 % 0.0 mm
03:25 18.3 °C 10.2 °C 1021.9 hPa SSE 1.6 km/h 3.2 km/h 59 % 0.0 mm
03:35 17.8 °C 9.7 °C 1021.9 hPa SSW 3.2 km/h 3.2 km/h 59 % 0.0 mm
03:45 17.9 °C 9.5 °C 1021.9 hPa Calm   3.2 km/h 58 % 0.0 mm
03:55 18.8 °C 10.3 °C 1021.9 hPa SSW 1.6 km/h 3.2 km/h 58 % 0.0 mm
04:05 19.6 °C 10.6 °C 1021.9 hPa South 1.6 km/h 3.2 km/h 56 % 0.0 mm
04:15 20.0 °C 10.7 °C 1021.9 hPa South 1.6 km/h 3.2 km/h 55 % 0.0 mm
04:25 20.9 °C 11.2 °C 1021.9 hPa South 1.6 km/h 3.2 km/h 54 % 0.0 mm
04:35 21.0 °C 10.8 °C 1021.9 hPa ENE 1.6 km/h 4.8 km/h 52 % 0.0 mm
04:45 21.5 °C 11.2 °C 1021.9 hPa NE 1.6 km/h 3.2 km/h 52 % 0.0 mm
04:55 22.1 °C 11.5 °C 1021.9 hPa ENE 3.2 km/h 3.2 km/h 51 % 0.0 mm
05:05 22.6 °C 11.7 °C 1021.9 hPa ESE 1.6 km/h 3.2 km/h 50 % 0.0 mm
05:15 23.3 °C 12.0 °C 1021.9 hPa Calm   3.2 km/h 49 % 0.0 mm
05:25 22.9 °C 11.6 °C 1021.9 hPa ENE 3.2 km/h 4.8 km/h 49 % 0.0 mm
05:35 23.7 °C 11.7 °C 1021.9 hPa East 3.2 km/h 3.2 km/h 47 % 0.0 mm
05:45 23.8 °C 11.2 °C 1021.9 hPa ESE 1.6 km/h 4.8 km/h 45 % 0.0 mm
05:55 24.0 °C 11.3 °C 1021.9 hPa East 1.6 km/h 4.8 km/h 45 % 0.0 mm
06:05 24.5 °C 11.4 °C 1021.9 hPa East 3.2 km/h 4.8 km/h 44 % 0.0 mm
06:15 24.4 °C 10.7 °C 1021.9 hPa ENE 3.2 km/h 3.2 km/h 42 % 0.0 mm
06:20 24.6 °C 10.8 °C 1021.9 hPa ENE 3.2 km/h 3.2 km/h 42 % 0.0 mm
11:22 24.6 °C 10.8 °C 1021.9 hPa South 3.7 km/h 3.7 km/h 42 % 0.0 mm
11:27 25.4 °C 11.2 °C 1021.9 hPa SW 5.6 km/h 5.6 km/h 41 % 0.0 mm
11:32 25.7 °C 11.4 °C 1021.9 hPa SE 5.6 km/h 5.6 km/h 41 % 0.0 mm
11:37 25.3 °C 10.7 °C 1021.9 hPa East 4.7 km/h 4.7 km/h 40 % 0.0 mm
11:42 25.3 °C 11.1 °C 1021.9 hPa ENE 3.7 km/h 3.7 km/h 41 % 0.0 mm
11:47 25.4 °C 10.8 °C 1021.9 hPa ENE 8.7 km/h 8.7 km/h 40 % 0.0 mm
11:52 25.1 °C 10.6 °C 1021.9 hPa ESE 3.7 km/h 3.7 km/h 40 % 0.0 mm
11:57 25.5 °C 10.9 °C 1021.9 hPa ESE 11.1 km/h 11.1 km/h 40 % 0.0 mm
12:02 25.3 °C 10.7 °C 1021.9 hPa ENE 5.6 km/h 5.6 km/h 40 % 0.0 mm
12:07 25.6 °C 11.0 °C 1021.9 hPa ESE 7.6 km/h 7.6 km/h 40 % 0.0 mm
12:12 25.6 °C 11.0 °C 1021.9 hPa SSE 7.4 km/h 7.4 km/h 40 % 0.0 mm
12:17 26.0 °C 11.3 °C 1021.9 hPa SW 9.3 km/h 9.3 km/h 40 % 0.0 mm
12:19 26.3 °C 11.6 °C 1021.9 hPa SW 5.6 km/h 5.6 km/h 40 % 0.0 mm
12:24 26.8 °C 12.1 °C 1022.9 hPa SSE 6.1 km/h 6.1 km/h 40 % 0.0 mm
12:29 27.6 °C 12.4 °C 1022.9 hPa East 5.6 km/h 5.6 km/h 39 % 0.0 mm
12:34 27.3 °C 12.1 °C 1022.9 hPa SSW 5.6 km/h 5.6 km/h 39 % 0.0 mm
12:39 27.5 °C 11.9 °C 1022.9 hPa SSE 7.9 km/h 7.9 km/h 38 % 0.0 mm
12:44 27.1 °C 11.6 °C 1022.9 hPa SSE 9.3 km/h 9.3 km/h 38 % 0.0 mm
12:49 27.5 °C 11.9 °C 1022.9 hPa ENE 7.4 km/h 7.4 km/h 38 % 0.0 mm
12:54 27.1 °C 11.6 °C 1021.9 hPa East 9.3 km/h 9.3 km/h 38 % 0.0 mm
12:59 27.2 °C 12.1 °C 1021.9 hPa NE 5.3 km/h 5.3 km/h 39 % 0.0 mm
13:04 26.9 °C 11.8 °C 1021.9 hPa ESE 7.4 km/h 7.4 km/h 39 % 0.0 mm
13:09 26.9 °C 11.4 °C 1021.9 hPa WSW 3.2 km/h 3.2 km/h 38 % 0.0 mm
13:14 27.0 °C 10.7 °C 1021.9 hPa ENE 7.4 km/h 7.4 km/h 36 % 0.0 mm
13:19 27.1 °C 10.7 °C 1021.9 hPa SW 7.4 km/h 7.4 km/h 36 % 0.0 mm
13:24 27.7 °C 11.3 °C 1021.9 hPa SW 3.7 km/h 3.9 km/h 36 % 0.0 mm
13:29 28.2 °C 11.3 °C 1021.9 hPa SW 5.6 km/h 5.6 km/h 35 % 0.0 mm
13:34 28.5 °C 10.7 °C 1021.9 hPa SSW 11.1 km/h 11.1 km/h 33 % 0.0 mm
13:39 28.4 °C 10.6 °C 1020.9 hPa SW 9.3 km/h 9.3 km/h 33 % 0.0 mm
13:44 28.0 °C 9.3 °C 1020.9 hPa West 11.1 km/h 11.1 km/h 31 % 0.0 mm
13:49 28.4 °C 9.6 °C 1020.9 hPa West 9.3 km/h 9.3 km/h 31 % 0.0 mm
13:54 28.8 °C 9.5 °C 1020.9 hPa West 15.1 km/h 15.1 km/h 30 % 0.0 mm
13:59 28.6 °C 9.3 °C 1020.9 hPa South 9.3 km/h 9.3 km/h 30 % 0.0 mm
14:04 28.7 °C 8.9 °C 1020.9 hPa West 18.5 km/h 18.5 km/h 29 % 0.0 mm
14:09 28.6 °C 8.8 °C 1019.9 hPa WSW 10.3 km/h 10.3 km/h 29 % 0.0 mm
14:14 28.6 °C 8.8 °C 1019.9 hPa West 9.3 km/h 9.3 km/h 29 % 0.0 mm
14:19 28.5 °C 8.7 °C 1019.9 hPa SW 7.4 km/h 7.4 km/h 29 % 0.0 mm
14:24 28.5 °C 8.2 °C 1019.9 hPa West 11.1 km/h 11.1 km/h 28 % 0.0 mm
14:29 28.7 °C 8.4 °C 1019.9 hPa South 13.0 km/h 13.0 km/h 28 % 0.0 mm
14:34 28.7 °C 8.4 °C 1019.9 hPa SW 11.1 km/h 11.1 km/h 28 % 0.0 mm
14:39 28.5 °C 8.2 °C 1019.9 hPa SW 9.3 km/h 9.3 km/h 28 % 0.0 mm
14:44 28.6 °C 8.3 °C 1019.9 hPa WSW 7.9 km/h 7.9 km/h 28 % 0.0 mm
14:49 28.7 °C 8.4 °C 1019.9 hPa SSW 5.6 km/h 5.6 km/h 28 % 0.0 mm
14:54 28.6 °C 8.3 °C 1019.9 hPa SW 16.7 km/h 16.7 km/h 28 % 0.0 mm
14:55 28.6 °C 8.3 °C 1019.9 hPa WSW 16.7 km/h 16.7 km/h 28 % 0.0 mm
15:00 28.5 °C 8.2 °C 1019.9 hPa SSW 11.9 km/h 11.9 km/h 28 % 0.0 mm
15:05 28.8 °C 8.4 °C 1019.9 hPa SW 11.1 km/h 11.1 km/h 28 % 0.0 mm
15:10 29.1 °C 8.2 °C 1018.8 hPa SW 9.3 km/h 9.5 km/h 27 % 0.0 mm
15:15 28.8 °C 7.9 °C 1018.8 hPa SSW 7.6 km/h 7.6 km/h 27 % 0.0 mm
15:20 28.4 °C 7.6 °C 1018.8 hPa SW 16.7 km/h 16.7 km/h 27 % 0.0 mm
15:25 28.8 °C 7.9 °C 1018.8 hPa WSW 9.3 km/h 9.5 km/h 27 % 0.0 mm
15:30 28.8 °C 7.9 °C 1018.8 hPa WSW 11.4 km/h 11.4 km/h 27 % 0.0 mm
15:35 28.8 °C 7.9 °C 1018.8 hPa SW 14.8 km/h 14.8 km/h 27 % 0.0 mm
15:45 29.0 °C 7.6 °C 1018.8 hPa SW 16.7 km/h 16.7 km/h 26 % 0.0 mm
15:50 28.7 °C 7.3 °C 1018.8 hPa WSW 9.3 km/h 9.3 km/h 26 % 0.0 mm
15:55 28.6 °C 7.2 °C 1018.8 hPa SSW 16.7 km/h 16.7 km/h 26 % 0.0 mm
16:00 28.5 °C 7.1 °C 1018.8 hPa SSW 11.1 km/h 11.1 km/h 26 % 0.0 mm
16:05 28.3 °C 6.9 °C 1018.8 hPa South 14.8 km/h 14.8 km/h 26 % 0.0 mm
16:10 28.1 °C 6.8 °C 1018.8 hPa South 11.1 km/h 11.1 km/h 26 % 0.0 mm
16:15 28.2 °C 6.9 °C 1018.8 hPa WNW 15.6 km/h 15.6 km/h 26 % 0.0 mm
16:20 28.3 °C 6.4 °C 1018.8 hPa West 16.1 km/h 16.1 km/h 25 % 0.0 mm
16:21 28.1 °C 6.2 °C 1018.8 hPa SW 13.0 km/h 13.0 km/h 25 % 0.0 mm
16:26 27.9 °C 6.6 °C 1018.8 hPa South 13.0 km/h 13.0 km/h 26 % 0.0 mm
16:31 27.6 °C 6.4 °C 1018.8 hPa SW 20.4 km/h 20.4 km/h 26 % 0.0 mm
16:36 27.4 °C 6.2 °C 1018.8 hPa WSW 11.1 km/h 11.1 km/h 26 % 0.0 mm
16:41 27.3 °C 6.1 °C 1018.8 hPa WSW 9.0 km/h 9.0 km/h 26 % 0.0 mm
16:46 26.8 °C 5.1 °C 1018.8 hPa SW 13.0 km/h 13.0 km/h 25 % 0.0 mm
16:51 26.8 °C 5.1 °C 1018.8 hPa WSW 13.0 km/h 13.0 km/h 25 % 0.0 mm
16:56 26.6 °C 4.9 °C 1018.8 hPa WSW 13.0 km/h 13.0 km/h 25 % 0.0 mm
17:01 26.6 °C 4.9 °C 1018.8 hPa WSW 13.0 km/h 13.0 km/h 25 % 0.0 mm
17:06 26.8 °C 5.7 °C 1018.8 hPa WSW 9.3 km/h 9.3 km/h 26 % 0.0 mm
17:11 26.7 °C 5.6 °C 1017.8 hPa South 9.3 km/h 9.3 km/h 26 % 0.0 mm
17:16 26.7 °C 5.1 °C 1017.8 hPa SW 11.1 km/h 11.1 km/h 25 % 0.0 mm
17:18 26.6 °C 4.9 °C 1017.8 hPa South 9.3 km/h 9.3 km/h 25 % 0.0 mm
17:23 26.4 °C 4.8 °C 1017.8 hPa SSW 7.4 km/h 7.4 km/h 25 % 0.0 mm
17:28 26.5 °C 5.4 °C 1017.8 hPa WSW 11.1 km/h 11.1 km/h 26 % 0.0 mm
17:33 26.0 °C 5.0 °C 1017.8 hPa South 11.1 km/h 11.1 km/h 26 % 0.0 mm
17:38 26.0 °C 4.4 °C 1017.8 hPa SW 10.3 km/h 10.3 km/h 25 % 0.0 mm
17:43 25.9 °C 4.9 °C 1017.8 hPa WSW 13.0 km/h 13.0 km/h 26 % 0.0 mm
17:48 25.8 °C 4.8 °C 1017.8 hPa SW 13.0 km/h 13.0 km/h 26 % 0.0 mm
17:53 25.6 °C 4.7 °C 1016.8 hPa West 7.4 km/h 7.4 km/h 26 % 0.0 mm
17:58 25.6 °C 4.7 °C 1016.8 hPa SSW 10.0 km/h 10.0 km/h 26 % 0.0 mm
18:03 25.4 °C 4.5 °C 1016.8 hPa SSW 11.1 km/h 11.1 km/h 26 % 0.0 mm
18:08 25.3 °C 4.4 °C 1016.8 hPa SSW 9.3 km/h 9.3 km/h 26 % 0.0 mm
18:13 25.2 °C 4.3 °C 1016.8 hPa SSE 9.3 km/h 9.3 km/h 26 % 0.0 mm
18:18 25.2 °C 4.3 °C 1016.8 hPa WSW 9.3 km/h 9.3 km/h 26 % 0.0 mm
18:23 25.1 °C 4.2 °C 1015.8 hPa SW 7.4 km/h 7.4 km/h 26 % 0.0 mm
18:28 25.1 °C 4.8 °C 1015.8 hPa SW 5.6 km/h 5.6 km/h 27 % 0.0 mm
18:33 25.0 °C 4.7 °C 1015.8 hPa SW 5.6 km/h 5.6 km/h 27 % 0.0 mm
18:38 24.9 °C 5.1 °C 1015.8 hPa SW 7.4 km/h 7.4 km/h 28 % 0.0 mm
18:43 24.7 °C 4.9 °C 1015.8 hPa SSW 5.6 km/h 5.6 km/h 28 % 0.0 mm
18:48 24.6 °C 4.9 °C 1015.8 hPa SSW 9.3 km/h 9.3 km/h 28 % 0.0 mm
18:53 24.3 °C 4.6 °C 1015.8 hPa SW 7.4 km/h 7.4 km/h 28 % 0.0 mm
18:58 24.2 °C 4.6 °C 1015.8 hPa SW 5.6 km/h 5.6 km/h 28 % 0.0 mm
19:03 24.2 °C 4.6 °C 1015.8 hPa SSW 7.4 km/h 7.4 km/h 28 % 0.0 mm
19:08 24.1 °C 4.4 °C 1015.8 hPa SSW 3.7 km/h 3.7 km/h 28 % 0.0 mm
19:13 24.0 °C 4.3 °C 1015.8 hPa SW 7.4 km/h 7.4 km/h 28 % 0.0 mm
19:18 23.8 °C 4.2 °C 1015.8 hPa SW 11.1 km/h 11.1 km/h 28 % 0.0 mm
19:23 23.7 °C 4.6 °C 1015.8 hPa WSW 5.8 km/h 5.8 km/h 29 % 0.0 mm
19:28 23.8 °C 4.7 °C 1015.8 hPa SW 7.4 km/h 7.4 km/h 29 % 0.0 mm
19:33 23.7 °C 4.6 °C 1015.8 hPa SSW 3.7 km/h 3.9 km/h 29 % 0.0 mm
19:38 23.5 °C 4.4 °C 1015.8 hPa SW 5.6 km/h 5.6 km/h 29 % 0.0 mm
19:43 23.4 °C 4.3 °C 1015.8 hPa SW 7.4 km/h 7.4 km/h 29 % 0.0 mm
19:45 17.9 °C 7.3 °C 1015.8 hPa Calm   1.6 km/h 50 % 0.0 mm
19:48 23.3 °C 4.3 °C 1015.8 hPa SW 5.6 km/h 5.6 km/h 29 % 0.0 mm
19:53 23.1 °C 4.1 °C 1015.8 hPa West 7.4 km/h 7.4 km/h 29 % 0.0 mm
19:55 17.7 °C 7.2 °C 1015.8 hPa Calm   4.8 km/h 50 % 0.0 mm
19:58 23.0 °C 4.0 °C 1015.8 hPa SW 5.6 km/h 5.6 km/h 29 % 0.0 mm
20:03 23.0 °C 4.5 °C 1015.8 hPa SSW 5.6 km/h 5.6 km/h 30 % 0.0 mm
20:05 17.3 °C 7.1 °C 1015.8 hPa Calm     51 % 0.0 mm
20:08 22.8 °C 4.8 °C 1015.8 hPa WSW 7.4 km/h 7.4 km/h 31 % 0.0 mm
20:13 22.6 °C 4.6 °C 1015.8 hPa SW 6.4 km/h 6.4 km/h 31 % 0.0 mm
20:15 17.1 °C 6.9 °C 1014.8 hPa East 1.6 km/h 1.6 km/h 51 % 0.0 mm
20:18 22.5 °C 4.5 °C 1015.8 hPa West 3.7 km/h 3.9 km/h 31 % 0.0 mm
20:23 22.3 °C 4.3 °C 1015.8 hPa WSW 5.0 km/h 5.0 km/h 31 % 0.0 mm
20:25 16.9 °C 7.0 °C 1014.8 hPa Calm   1.6 km/h 52 % 0.0 mm
20:28 22.3 °C 4.8 °C 1015.8 hPa SW 5.6 km/h 5.6 km/h 32 % 0.0 mm
20:33 22.1 °C 4.6 °C 1015.8 hPa SW 3.7 km/h 3.7 km/h 32 % 0.0 mm
20:35 17.0 °C 7.1 °C 1014.8 hPa Calm   1.6 km/h 52 % 0.0 mm
20:38 21.9 °C 4.4 °C 1015.8 hPa SW 7.4 km/h 7.4 km/h 32 % 0.0 mm
20:43 21.8 °C 4.8 °C 1015.8 hPa SW 3.7 km/h 3.7 km/h 33 % 0.0 mm
20:45 16.8 °C 7.4 °C 1014.8 hPa Calm   1.6 km/h 54 % 0.0 mm
20:48 21.7 °C 4.7 °C 1015.8 hPa WSW 5.6 km/h 5.6 km/h 33 % 0.0 mm
20:53 21.6 °C 5.1 °C 1015.8 hPa SW 5.6 km/h 5.6 km/h 34 % 0.0 mm
20:55 16.7 °C 7.3 °C 1014.8 hPa Calm     54 % 0.0 mm
20:58 21.4 °C 4.9 °C 1015.8 hPa SW 5.6 km/h 5.6 km/h 34 % 0.0 mm
21:03 21.3 °C 5.2 °C 1015.8 hPa SW 3.7 km/h 3.7 km/h 35 % 0.0 mm
21:08 21.2 °C 5.1 °C 1015.8 hPa WSW 3.7 km/h 3.7 km/h 35 % 0.0 mm
21:13 21.1 °C 5.1 °C 1015.8 hPa West 4.2 km/h 4.2 km/h 35 % 0.0 mm
21:15 16.5 °C 7.7 °C 1014.8 hPa Calm   1.6 km/h 56 % 0.0 mm
21:18 21.1 °C 5.1 °C 1015.8 hPa West 3.7 km/h 3.7 km/h 35 % 0.0 mm
21:23 21.0 °C 5.3 °C 1015.8 hPa SW 3.7 km/h 3.7 km/h 36 % 0.0 mm
21:25 16.3 °C 7.5 °C 1014.8 hPa Calm   1.6 km/h 56 % 0.0 mm
21:28 20.9 °C 5.3 °C 1015.8 hPa WSW 3.7 km/h 3.7 km/h 36 % 0.0 mm
21:33 20.8 °C 5.2 °C 1015.8 hPa West 3.7 km/h 3.7 km/h 36 % 0.0 mm
21:35 16.1 °C 7.6 °C 1014.8 hPa Calm     57 % 0.0 mm
21:38 20.7 °C 5.1 °C 1015.8 hPa West 3.7 km/h 3.7 km/h 36 % 0.0 mm
21:43 20.6 °C 5.4 °C 1015.8 hPa WSW 3.7 km/h 3.7 km/h 37 % 0.0 mm
21:45 16.0 °C 7.7 °C 1014.8 hPa Calm     58 % 0.0 mm
21:48 20.5 °C 5.3 °C 1015.8 hPa West 3.2 km/h 3.2 km/h 37 % 0.0 mm
21:53 20.4 °C 5.6 °C 1015.8 hPa WSW 1.9 km/h   38 % 0.0 mm
21:55 15.9 °C 7.7 °C 1014.8 hPa Calm   1.6 km/h 58 % 0.0 mm
21:58 20.3 °C 5.5 °C 1015.8 hPa WSW 1.4 km/h   38 % 0.0 mm
22:03 20.2 °C 5.4 °C 1015.8 hPa SW 1.9 km/h   38 % 0.0 mm
22:05 16.0 °C 8.0 °C 1014.8 hPa NNW 1.6 km/h 3.2 km/h 59 % 0.0 mm
22:08 20.1 °C 5.7 °C 1015.8 hPa Calm     39 % 0.0 mm
22:13 20.0 °C 5.6 °C 1015.8 hPa West 1.9 km/h   39 % 0.0 mm
22:15 15.9 °C 7.9 °C 1014.8 hPa Calm     59 % 0.0 mm
22:18 20.0 °C 5.6 °C 1015.8 hPa WNW 1.9 km/h   39 % 0.0 mm
22:23 19.9 °C 5.9 °C 1014.8 hPa SW 1.9 km/h 1.9 km/h 40 % 0.0 mm
22:25 15.7 °C 7.9 °C 1013.8 hPa Calm     60 % 0.0 mm
22:28 19.8 °C 5.8 °C 1014.8 hPa SW 3.7 km/h 3.7 km/h 40 % 0.0 mm
22:33 19.7 °C 6.1 °C 1014.8 hPa SW 4.2 km/h 4.2 km/h 41 % 0.0 mm
22:35 15.5 °C 7.8 °C 1013.8 hPa Calm     60 % 0.0 mm
22:38 19.6 °C 6.0 °C 1015.8 hPa WSW 3.7 km/h 3.7 km/h 41 % 0.0 mm
22:43 19.6 °C 6.0 °C 1015.8 hPa WSW 5.6 km/h 5.6 km/h 41 % 0.0 mm
22:45 15.2 °C 7.5 °C 1013.8 hPa NE 3.2 km/h 3.2 km/h 60 % 0.0 mm
22:48 19.4 °C 5.8 °C 1015.8 hPa SW 3.7 km/h   41 % 0.0 mm
22:53 19.3 °C 6.1 °C 1015.8 hPa WSW 1.9 km/h 1.9 km/h 42 % 0.0 mm
22:55 14.9 °C 7.7 °C 1014.8 hPa Calm   3.2 km/h 62 % 0.0 mm
22:58 19.2 °C 5.9 °C 1015.8 hPa WSW 3.7 km/h 3.7 km/h 42 % 0.0 mm
23:03 19.1 °C 5.9 °C 1015.8 hPa SW 3.7 km/h 3.7 km/h 42 % 0.0 mm
23:05 14.7 °C 7.5 °C 1014.8 hPa Calm     62 % 0.0 mm
23:08 19.0 °C 5.8 °C 1015.8 hPa SW 3.9 km/h 3.9 km/h 42 % 0.0 mm
23:13 19.0 °C 6.1 °C 1015.8 hPa WSW 3.7 km/h 3.7 km/h 43 % 0.0 mm
23:15 14.6 °C 7.6 °C 1014.8 hPa Calm     63 % 0.0 mm
23:18 18.8 °C 6.3 °C 1015.8 hPa SW 3.7 km/h 3.7 km/h 44 % 0.0 mm
23:23 18.8 °C 6.3 °C 1015.8 hPa WSW 4.2 km/h 4.2 km/h 44 % 0.0 mm
23:25 14.5 °C 7.6 °C 1014.8 hPa Calm   4.8 km/h 63 % 0.0 mm
23:28 18.7 °C 6.2 °C 1015.8 hPa WSW 3.7 km/h 3.7 km/h 44 % 0.0 mm
23:33 18.7 °C 6.5 °C 1015.8 hPa WSW 3.7 km/h 3.7 km/h 45 % 0.0 mm
23:35 14.4 °C 7.4 °C 1014.8 hPa Calm   3.2 km/h 63 % 0.0 mm
23:38 18.6 °C 6.4 °C 1015.8 hPa SW 3.7 km/h 3.7 km/h 45 % 0.0 mm
23:43 18.6 °C 6.4 °C 1015.8 hPa WSW 3.7 km/h 3.7 km/h 45 % 0.0 mm
23:45 14.4 °C 7.4 °C 1014.8 hPa Calm     63 % 0.0 mm
23:53 18.6 °C 6.7 °C 1015.8 hPa West 2.6 km/h 2.6 km/h 46 % 0.0 mm
23:55 14.2 °C 7.3 °C 1014.8 hPa WSW 1.6 km/h 3.2 km/h 63 % 0.0 mm
23:58 18.6 °C 6.7 °C 1015.8 hPa West 1.9 km/h   46 % 0.0 mm
Meteo Sesrovires
Elogis d' Weather Underground - 3.75 mb

Guio original per  Jim McMurry - jmcmurry@mwt.net Adaptat per a la plantilla per  Wim van der Kuil - Leuven-Template.eu

Trobareu la nostra informacio del temps tambe a:

Weather Underground

AWEKAS